sensor_id;sensor_type;location;lat;lon;timestamp;P1;durP1;ratioP1;P2;durP2;ratioP2
12925;SDS011;6529;50.566;9.774;2023-03-01T00:01:02;14.10;;;9.00;;
12925;SDS011;6529;50.566;9.774;2023-03-01T00:03:32;13.47;;;8.73;;
12925;SDS011;6529;50.566;9.774;2023-03-01T00:05:58;15.77;;;8.73;;
12925;SDS011;6529;50.566;9.774;2023-03-01T00:08:24;13.97;;;9.30;;
12925;SDS011;6529;50.566;9.774;2023-03-01T00:10:59;16.37;;;9.13;;
12925;SDS011;6529;50.566;9.774;2023-03-01T00:13:33;14.17;;;8.87;;
12925;SDS011;6529;50.566;9.774;2023-03-01T00:16:01;15.07;;;9.47;;
12925;SDS011;6529;50.566;9.774;2023-03-01T00:18:31;14.90;;;8.93;;
12925;SDS011;6529;50.566;9.774;2023-03-01T00:20:58;15.37;;;9.43;;
12925;SDS011;6529;50.566;9.774;2023-03-01T00:23:24;15.23;;;9.07;;
12925;SDS011;6529;50.566;9.774;2023-03-01T00:25:50;13.67;;;8.37;;
12925;SDS011;6529;50.566;9.774;2023-03-01T00:28:16;12.53;;;8.57;;
12925;SDS011;6529;50.566;9.774;2023-03-01T00:30:42;11.83;;;8.40;;
12925;SDS011;6529;50.566;9.774;2023-03-01T00:33:08;15.07;;;8.90;;
12925;SDS011;6529;50.566;9.774;2023-03-01T00:35:33;15.00;;;9.10;;
12925;SDS011;6529;50.566;9.774;2023-03-01T00:38:00;13.30;;;8.40;;
12925;SDS011;6529;50.566;9.774;2023-03-01T00:40:26;12.40;;;7.93;;
12925;SDS011;6529;50.566;9.774;2023-03-01T00:42:53;12.87;;;8.37;;
12925;SDS011;6529;50.566;9.774;2023-03-01T00:45:20;14.60;;;9.07;;
12925;SDS011;6529;50.566;9.774;2023-03-01T00:47:45;16.90;;;9.43;;
12925;SDS011;6529;50.566;9.774;2023-03-01T00:50:12;14.07;;;8.43;;
12925;SDS011;6529;50.566;9.774;2023-03-01T00:52:37;13.63;;;8.50;;
12925;SDS011;6529;50.566;9.774;2023-03-01T00:55:03;16.03;;;9.47;;
12925;SDS011;6529;50.566;9.774;2023-03-01T00:57:30;13.87;;;9.30;;
12925;SDS011;6529;50.566;9.774;2023-03-01T00:59:55;14.10;;;8.97;;
12925;SDS011;6529;50.566;9.774;2023-03-01T01:02:21;13.87;;;8.63;;
12925;SDS011;6529;50.566;9.774;2023-03-01T01:04:47;15.43;;;8.30;;
12925;SDS011;6529;50.566;9.774;2023-03-01T01:07:13;13.70;;;9.23;;
12925;SDS011;6529;50.566;9.774;2023-03-01T01:09:39;14.60;;;8.70;;
12925;SDS011;6529;50.566;9.774;2023-03-01T01:12:05;15.50;;;9.63;;
12925;SDS011;6529;50.566;9.774;2023-03-01T01:14:31;14.97;;;8.73;;
12925;SDS011;6529;50.566;9.774;2023-03-01T01:16:57;16.13;;;9.90;;
12925;SDS011;6529;50.566;9.774;2023-03-01T01:19:23;13.80;;;8.97;;
12925;SDS011;6529;50.566;9.774;2023-03-01T01:21:49;17.87;;;9.87;;
12925;SDS011;6529;50.566;9.774;2023-03-01T01:24:15;14.77;;;9.27;;
12925;SDS011;6529;50.566;9.774;2023-03-01T01:26:41;13.20;;;8.53;;
12925;SDS011;6529;50.566;9.774;2023-03-01T01:29:07;12.77;;;8.57;;
12925;SDS011;6529;50.566;9.774;2023-03-01T01:31:34;15.43;;;9.93;;
12925;SDS011;6529;50.566;9.774;2023-03-01T01:34:01;15.03;;;8.27;;
12925;SDS011;6529;50.566;9.774;2023-03-01T01:36:29;13.13;;;8.67;;
12925;SDS011;6529;50.566;9.774;2023-03-01T01:38:55;13.27;;;8.67;;
12925;SDS011;6529;50.566;9.774;2023-03-01T01:41:21;15.20;;;9.27;;
12925;SDS011;6529;50.566;9.774;2023-03-01T01:46:36;15.40;;;9.40;;
12925;SDS011;6529;50.566;9.774;2023-03-01T01:49:04;13.63;;;9.37;;
12925;SDS011;6529;50.566;9.774;2023-03-01T01:51:40;15.73;;;9.30;;
12925;SDS011;6529;50.566;9.774;2023-03-01T01:54:10;14.87;;;9.40;;
12925;SDS011;6529;50.566;9.774;2023-03-01T01:56:38;14.60;;;9.40;;
12925;SDS011;6529;50.566;9.774;2023-03-01T01:59:09;16.50;;;10.10;;
12925;SDS011;6529;50.566;9.774;2023-03-01T02:01:35;14.87;;;9.17;;
12925;SDS011;6529;50.566;9.774;2023-03-01T02:04:01;14.40;;;8.90;;
12925;SDS011;6529;50.566;9.774;2023-03-01T02:06:34;15.93;;;9.03;;
12925;SDS011;6529;50.566;9.774;2023-03-01T02:09:08;16.00;;;9.37;;
12925;SDS011;6529;50.566;9.774;2023-03-01T02:11:38;16.73;;;9.23;;
12925;SDS011;6529;50.566;9.774;2023-03-01T02:14:04;16.63;;;8.87;;
12925;SDS011;6529;50.566;9.774;2023-03-01T02:16:30;15.20;;;9.47;;
12925;SDS011;6529;50.566;9.774;2023-03-01T02:18:57;16.03;;;9.53;;
12925;SDS011;6529;50.566;9.774;2023-03-01T02:23:54;15.77;;;9.73;;
12925;SDS011;6529;50.566;9.774;2023-03-01T02:26:23;13.87;;;9.17;;
12925;SDS011;6529;50.566;9.774;2023-03-01T02:29:05;14.57;;;9.47;;
12925;SDS011;6529;50.566;9.774;2023-03-01T02:31:31;15.17;;;9.50;;
12925;SDS011;6529;50.566;9.774;2023-03-01T02:34:11;14.13;;;9.67;;
12925;SDS011;6529;50.566;9.774;2023-03-01T02:36:40;15.43;;;9.57;;
12925;SDS011;6529;50.566;9.774;2023-03-01T02:39:20;13.90;;;9.90;;
12925;SDS011;6529;50.566;9.774;2023-03-01T02:41:52;15.60;;;9.37;;
12925;SDS011;6529;50.566;9.774;2023-03-01T02:44:19;14.67;;;9.37;;
12925;SDS011;6529;50.566;9.774;2023-03-01T02:46:46;14.43;;;9.20;;
12925;SDS011;6529;50.566;9.774;2023-03-01T02:49:20;15.30;;;9.47;;
12925;SDS011;6529;50.566;9.774;2023-03-01T02:51:59;14.93;;;9.13;;
12925;SDS011;6529;50.566;9.774;2023-03-01T02:54:31;14.47;;;9.10;;
12925;SDS011;6529;50.566;9.774;2023-03-01T02:57:04;15.83;;;9.33;;
12925;SDS011;6529;50.566;9.774;2023-03-01T02:59:31;13.83;;;8.80;;
12925;SDS011;6529;50.566;9.774;2023-03-01T03:02:04;15.97;;;8.53;;
12925;SDS011;6529;50.566;9.774;2023-03-01T03:04:30;16.67;;;9.47;;
12925;SDS011;6529;50.566;9.774;2023-03-01T03:06:55;14.07;;;9.07;;
12925;SDS011;6529;50.566;9.774;2023-03-01T03:09:21;13.97;;;8.93;;
12925;SDS011;6529;50.566;9.774;2023-03-01T03:11:46;13.97;;;9.03;;
12925;SDS011;6529;50.566;9.774;2023-03-01T03:14:13;17.00;;;9.37;;
12925;SDS011;6529;50.566;9.774;2023-03-01T03:16:58;15.33;;;9.80;;
12925;SDS011;6529;50.566;9.774;2023-03-01T03:19:24;14.60;;;9.37;;
12925;SDS011;6529;50.566;9.774;2023-03-01T03:21:49;14.70;;;9.33;;
12925;SDS011;6529;50.566;9.774;2023-03-01T03:24:15;14.57;;;9.33;;
12925;SDS011;6529;50.566;9.774;2023-03-01T03:26:41;14.57;;;9.27;;
12925;SDS011;6529;50.566;9.774;2023-03-01T03:29:06;13.87;;;8.43;;
12925;SDS011;6529;50.566;9.774;2023-03-01T03:31:32;16.10;;;9.23;;
12925;SDS011;6529;50.566;9.774;2023-03-01T03:33:58;14.87;;;8.80;;
12925;SDS011;6529;50.566;9.774;2023-03-01T03:36:24;14.13;;;8.80;;
12925;SDS011;6529;50.566;9.774;2023-03-01T03:38:50;14.43;;;8.87;;
12925;SDS011;6529;50.566;9.774;2023-03-01T03:41:16;12.67;;;8.43;;
12925;SDS011;6529;50.566;9.774;2023-03-01T03:43:42;15.13;;;8.90;;
12925;SDS011;6529;50.566;9.774;2023-03-01T03:46:09;14.10;;;8.93;;
12925;SDS011;6529;50.566;9.774;2023-03-01T03:48:36;15.60;;;9.67;;
12925;SDS011;6529;50.566;9.774;2023-03-01T03:51:04;14.63;;;9.13;;
12925;SDS011;6529;50.566;9.774;2023-03-01T03:53:33;13.80;;;8.30;;
12925;SDS011;6529;50.566;9.774;2023-03-01T03:55:59;14.00;;;8.93;;
12925;SDS011;6529;50.566;9.774;2023-03-01T03:58:25;13.60;;;8.70;;
12925;SDS011;6529;50.566;9.774;2023-03-01T04:00:56;14.23;;;9.13;;
12925;SDS011;6529;50.566;9.774;2023-03-01T04:03:23;12.50;;;9.00;;
12925;SDS011;6529;50.566;9.774;2023-03-01T04:05:50;13.17;;;8.47;;
12925;SDS011;6529;50.566;9.774;2023-03-01T04:08:20;13.47;;;8.67;;
12925;SDS011;6529;50.566;9.774;2023-03-01T04:10:48;14.77;;;8.97;;
12925;SDS011;6529;50.566;9.774;2023-03-01T04:13:16;15.80;;;8.70;;
12925;SDS011;6529;50.566;9.774;2023-03-01T04:15:45;14.07;;;8.97;;
12925;SDS011;6529;50.566;9.774;2023-03-01T04:18:12;12.43;;;8.33;;
12925;SDS011;6529;50.566;9.774;2023-03-01T04:20:39;13.53;;;8.97;;
12925;SDS011;6529;50.566;9.774;2023-03-01T04:23:06;15.47;;;8.23;;
12925;SDS011;6529;50.566;9.774;2023-03-01T04:25:39;15.70;;;9.07;;
12925;SDS011;6529;50.566;9.774;2023-03-01T04:28:07;18.93;;;9.67;;
12925;SDS011;6529;50.566;9.774;2023-03-01T04:30:34;14.60;;;8.93;;
12925;SDS011;6529;50.566;9.774;2023-03-01T04:33:07;14.63;;;9.10;;
12925;SDS011;6529;50.566;9.774;2023-03-01T04:35:35;14.23;;;9.27;;
12925;SDS011;6529;50.566;9.774;2023-03-01T04:38:02;15.07;;;9.27;;
12925;SDS011;6529;50.566;9.774;2023-03-01T04:40:28;18.00;;;9.03;;
12925;SDS011;6529;50.566;9.774;2023-03-01T04:42:54;16.73;;;9.17;;
12925;SDS011;6529;50.566;9.774;2023-03-01T04:45:20;13.33;;;8.73;;
12925;SDS011;6529;50.566;9.774;2023-03-01T04:47:46;14.13;;;9.27;;
12925;SDS011;6529;50.566;9.774;2023-03-01T04:50:13;13.73;;;8.67;;
12925;SDS011;6529;50.566;9.774;2023-03-01T04:52:40;16.93;;;9.00;;
12925;SDS011;6529;50.566;9.774;2023-03-01T04:55:06;13.63;;;8.57;;
12925;SDS011;6529;50.566;9.774;2023-03-01T04:57:32;14.17;;;9.27;;
12925;SDS011;6529;50.566;9.774;2023-03-01T04:59:58;16.03;;;9.47;;
12925;SDS011;6529;50.566;9.774;2023-03-01T05:02:23;14.87;;;8.90;;
12925;SDS011;6529;50.566;9.774;2023-03-01T05:04:49;14.73;;;9.00;;
12925;SDS011;6529;50.566;9.774;2023-03-01T05:07:15;16.00;;;9.50;;
12925;SDS011;6529;50.566;9.774;2023-03-01T05:09:44;14.10;;;8.87;;
12925;SDS011;6529;50.566;9.774;2023-03-01T05:12:11;16.07;;;9.30;;
12925;SDS011;6529;50.566;9.774;2023-03-01T05:14:37;14.57;;;9.07;;
12925;SDS011;6529;50.566;9.774;2023-03-01T05:17:03;13.03;;;8.87;;
12925;SDS011;6529;50.566;9.774;2023-03-01T05:19:29;15.67;;;8.90;;
12925;SDS011;6529;50.566;9.774;2023-03-01T05:21:56;16.13;;;9.03;;
12925;SDS011;6529;50.566;9.774;2023-03-01T05:24:31;14.27;;;9.17;;
12925;SDS011;6529;50.566;9.774;2023-03-01T05:26:58;18.27;;;9.90;;
12925;SDS011;6529;50.566;9.774;2023-03-01T05:29:25;15.30;;;9.80;;
12925;SDS011;6529;50.566;9.774;2023-03-01T05:31:52;12.93;;;8.90;;
12925;SDS011;6529;50.566;9.774;2023-03-01T05:34:22;15.67;;;9.27;;
12925;SDS011;6529;50.566;9.774;2023-03-01T05:36:52;16.37;;;9.93;;
12925;SDS011;6529;50.566;9.774;2023-03-01T05:39:22;16.10;;;9.80;;
12925;SDS011;6529;50.566;9.774;2023-03-01T05:41:56;15.57;;;9.30;;
12925;SDS011;6529;50.566;9.774;2023-03-01T05:44:23;13.83;;;8.73;;
12925;SDS011;6529;50.566;9.774;2023-03-01T05:46:50;15.07;;;9.77;;
12925;SDS011;6529;50.566;9.774;2023-03-01T05:49:17;18.00;;;10.13;;
12925;SDS011;6529;50.566;9.774;2023-03-01T05:51:43;17.47;;;9.57;;
12925;SDS011;6529;50.566;9.774;2023-03-01T05:54:13;11.37;;;6.47;;
12925;SDS011;6529;50.566;9.774;2023-03-01T05:56:39;18.37;;;10.40;;
12925;SDS011;6529;50.566;9.774;2023-03-01T05:59:05;15.57;;;9.77;;
12925;SDS011;6529;50.566;9.774;2023-03-01T06:01:31;16.47;;;9.77;;
12925;SDS011;6529;50.566;9.774;2023-03-01T06:03:58;15.33;;;9.77;;
12925;SDS011;6529;50.566;9.774;2023-03-01T06:06:23;15.03;;;9.20;;
12925;SDS011;6529;50.566;9.774;2023-03-01T06:08:50;13.37;;;8.40;;
12925;SDS011;6529;50.566;9.774;2023-03-01T06:11:16;14.37;;;9.13;;
12925;SDS011;6529;50.566;9.774;2023-03-01T06:13:42;16.80;;;10.10;;
12925;SDS011;6529;50.566;9.774;2023-03-01T06:16:08;15.40;;;9.27;;
12925;SDS011;6529;50.566;9.774;2023-03-01T06:18:35;15.20;;;9.17;;
12925;SDS011;6529;50.566;9.774;2023-03-01T06:21:01;16.77;;;10.37;;
12925;SDS011;6529;50.566;9.774;2023-03-01T06:23:28;17.47;;;10.23;;
12925;SDS011;6529;50.566;9.774;2023-03-01T06:25:53;17.97;;;10.20;;
12925;SDS011;6529;50.566;9.774;2023-03-01T06:28:19;17.47;;;10.57;;
12925;SDS011;6529;50.566;9.774;2023-03-01T06:30:44;20.03;;;10.33;;
12925;SDS011;6529;50.566;9.774;2023-03-01T06:33:10;16.43;;;10.23;;
12925;SDS011;6529;50.566;9.774;2023-03-01T06:35:36;18.67;;;10.57;;
12925;SDS011;6529;50.566;9.774;2023-03-01T06:38:02;19.93;;;11.47;;
12925;SDS011;6529;50.566;9.774;2023-03-01T06:40:29;19.40;;;11.23;;
12925;SDS011;6529;50.566;9.774;2023-03-01T06:42:56;19.60;;;11.27;;
12925;SDS011;6529;50.566;9.774;2023-03-01T06:45:22;19.77;;;10.73;;
12925;SDS011;6529;50.566;9.774;2023-03-01T06:47:48;19.63;;;11.37;;
12925;SDS011;6529;50.566;9.774;2023-03-01T06:50:14;20.60;;;11.93;;
12925;SDS011;6529;50.566;9.774;2023-03-01T06:52:40;19.03;;;11.00;;
12925;SDS011;6529;50.566;9.774;2023-03-01T06:55:06;18.47;;;10.37;;
12925;SDS011;6529;50.566;9.774;2023-03-01T06:57:32;17.30;;;10.23;;
12925;SDS011;6529;50.566;9.774;2023-03-01T06:59:57;16.90;;;10.40;;
12925;SDS011;6529;50.566;9.774;2023-03-01T07:02:23;16.53;;;10.20;;
12925;SDS011;6529;50.566;9.774;2023-03-01T07:04:52;17.17;;;10.37;;
12925;SDS011;6529;50.566;9.774;2023-03-01T07:07:17;16.33;;;10.13;;
12925;SDS011;6529;50.566;9.774;2023-03-01T07:09:44;17.97;;;10.83;;
12925;SDS011;6529;50.566;9.774;2023-03-01T07:12:10;17.63;;;10.53;;
12925;SDS011;6529;50.566;9.774;2023-03-01T07:14:36;18.17;;;10.83;;
12925;SDS011;6529;50.566;9.774;2023-03-01T07:17:01;19.50;;;10.80;;
12925;SDS011;6529;50.566;9.774;2023-03-01T07:19:27;17.13;;;10.40;;
12925;SDS011;6529;50.566;9.774;2023-03-01T07:21:53;17.40;;;10.03;;
12925;SDS011;6529;50.566;9.774;2023-03-01T07:24:20;15.57;;;10.00;;
12925;SDS011;6529;50.566;9.774;2023-03-01T07:26:49;18.30;;;10.27;;
12925;SDS011;6529;50.566;9.774;2023-03-01T07:29:16;15.57;;;9.93;;
12925;SDS011;6529;50.566;9.774;2023-03-01T07:31:43;16.77;;;9.93;;
12925;SDS011;6529;50.566;9.774;2023-03-01T07:34:08;18.97;;;11.43;;
12925;SDS011;6529;50.566;9.774;2023-03-01T07:36:35;19.90;;;11.93;;
12925;SDS011;6529;50.566;9.774;2023-03-01T07:39:01;18.57;;;11.03;;
12925;SDS011;6529;50.566;9.774;2023-03-01T07:41:28;18.20;;;10.77;;
12925;SDS011;6529;50.566;9.774;2023-03-01T07:43:54;18.87;;;10.93;;
12925;SDS011;6529;50.566;9.774;2023-03-01T07:46:19;19.03;;;10.30;;
12925;SDS011;6529;50.566;9.774;2023-03-01T07:48:45;20.20;;;11.57;;
12925;SDS011;6529;50.566;9.774;2023-03-01T07:51:11;17.53;;;10.60;;
12925;SDS011;6529;50.566;9.774;2023-03-01T07:53:37;17.10;;;10.60;;
12925;SDS011;6529;50.566;9.774;2023-03-01T07:56:04;19.67;;;11.23;;
12925;SDS011;6529;50.566;9.774;2023-03-01T07:58:38;18.37;;;11.23;;
12925;SDS011;6529;50.566;9.774;2023-03-01T08:01:06;19.93;;;11.50;;
12925;SDS011;6529;50.566;9.774;2023-03-01T08:03:33;18.30;;;10.90;;
12925;SDS011;6529;50.566;9.774;2023-03-01T08:05:59;18.10;;;10.20;;
12925;SDS011;6529;50.566;9.774;2023-03-01T08:08:25;18.57;;;10.70;;
12925;SDS011;6529;50.566;9.774;2023-03-01T08:10:51;15.53;;;10.17;;
12925;SDS011;6529;50.566;9.774;2023-03-01T08:13:17;19.73;;;11.23;;
12925;SDS011;6529;50.566;9.774;2023-03-01T08:15:47;15.40;;;10.13;;
12925;SDS011;6529;50.566;9.774;2023-03-01T08:18:13;17.07;;;9.67;;
12925;SDS011;6529;50.566;9.774;2023-03-01T08:20:40;18.00;;;10.17;;
12925;SDS011;6529;50.566;9.774;2023-03-01T08:23:05;15.87;;;10.17;;
12925;SDS011;6529;50.566;9.774;2023-03-01T08:25:31;15.90;;;10.47;;
12925;SDS011;6529;50.566;9.774;2023-03-01T08:27:56;15.73;;;9.77;;
12925;SDS011;6529;50.566;9.774;2023-03-01T08:30:22;16.83;;;10.00;;
12925;SDS011;6529;50.566;9.774;2023-03-01T08:32:48;17.83;;;9.90;;
12925;SDS011;6529;50.566;9.774;2023-03-01T08:35:14;15.33;;;10.00;;
12925;SDS011;6529;50.566;9.774;2023-03-01T08:37:40;14.87;;;9.90;;
12925;SDS011;6529;50.566;9.774;2023-03-01T08:40:06;15.20;;;9.23;;
12925;SDS011;6529;50.566;9.774;2023-03-01T08:42:32;16.03;;;9.60;;
12925;SDS011;6529;50.566;9.774;2023-03-01T08:47:33;15.40;;;9.53;;
12925;SDS011;6529;50.566;9.774;2023-03-01T08:49:59;13.77;;;9.23;;
12925;SDS011;6529;50.566;9.774;2023-03-01T08:52:25;14.67;;;9.83;;
12925;SDS011;6529;50.566;9.774;2023-03-01T08:54:51;15.70;;;9.37;;
12925;SDS011;6529;50.566;9.774;2023-03-01T08:57:17;16.17;;;9.77;;
12925;SDS011;6529;50.566;9.774;2023-03-01T08:59:43;15.33;;;9.80;;
12925;SDS011;6529;50.566;9.774;2023-03-01T09:02:12;14.00;;;9.30;;
12925;SDS011;6529;50.566;9.774;2023-03-01T09:04:40;12.87;;;8.77;;
12925;SDS011;6529;50.566;9.774;2023-03-01T09:07:05;13.40;;;9.00;;
12925;SDS011;6529;50.566;9.774;2023-03-01T09:09:31;12.90;;;8.37;;
12925;SDS011;6529;50.566;9.774;2023-03-01T09:11:57;13.27;;;9.10;;
12925;SDS011;6529;50.566;9.774;2023-03-01T09:14:23;13.00;;;9.13;;
12925;SDS011;6529;50.566;9.774;2023-03-01T09:16:48;14.83;;;8.83;;
12925;SDS011;6529;50.566;9.774;2023-03-01T09:19:15;15.00;;;9.17;;
12925;SDS011;6529;50.566;9.774;2023-03-01T09:21:41;13.67;;;8.53;;
12925;SDS011;6529;50.566;9.774;2023-03-01T09:24:18;12.17;;;8.17;;
12925;SDS011;6529;50.566;9.774;2023-03-01T09:26:45;12.30;;;7.93;;
12925;SDS011;6529;50.566;9.774;2023-03-01T09:29:11;12.97;;;8.27;;
12925;SDS011;6529;50.566;9.774;2023-03-01T09:31:37;11.57;;;7.70;;
12925;SDS011;6529;50.566;9.774;2023-03-01T09:34:03;12.27;;;7.83;;
12925;SDS011;6529;50.566;9.774;2023-03-01T09:36:29;11.77;;;7.50;;
12925;SDS011;6529;50.566;9.774;2023-03-01T09:38:55;13.30;;;8.40;;
12925;SDS011;6529;50.566;9.774;2023-03-01T09:44:20;11.67;;;7.83;;
12925;SDS011;6529;50.566;9.774;2023-03-01T09:46:56;10.63;;;7.80;;
12925;SDS011;6529;50.566;9.774;2023-03-01T09:49:23;13.97;;;8.17;;
12925;SDS011;6529;50.566;9.774;2023-03-01T09:51:55;12.53;;;8.73;;
12925;SDS011;6529;50.566;9.774;2023-03-01T09:54:21;14.00;;;9.33;;
12925;SDS011;6529;50.566;9.774;2023-03-01T09:56:53;14.57;;;9.97;;
12925;SDS011;6529;50.566;9.774;2023-03-01T09:59:49;13.03;;;9.00;;
12925;SDS011;6529;50.566;9.774;2023-03-01T10:08:00;12.63;;;8.73;;
12925;SDS011;6529;50.566;9.774;2023-03-01T10:10:40;12.27;;;8.17;;
12925;SDS011;6529;50.566;9.774;2023-03-01T10:13:29;11.63;;;8.43;;
12925;SDS011;6529;50.566;9.774;2023-03-01T10:18:39;13.37;;;9.03;;
12925;SDS011;6529;50.566;9.774;2023-03-01T10:21:17;13.47;;;8.70;;
12925;SDS011;6529;50.566;9.774;2023-03-01T10:23:44;12.93;;;8.60;;
12925;SDS011;6529;50.566;9.774;2023-03-01T10:31:20;12.20;;;8.53;;
12925;SDS011;6529;50.566;9.774;2023-03-01T10:33:53;12.53;;;8.80;;
12925;SDS011;6529;50.566;9.774;2023-03-01T10:36:21;12.47;;;8.67;;
12925;SDS011;6529;50.566;9.774;2023-03-01T10:38:52;14.27;;;9.17;;
12925;SDS011;6529;50.566;9.774;2023-03-01T10:41:20;12.30;;;9.07;;
12925;SDS011;6529;50.566;9.774;2023-03-01T10:43:58;12.90;;;8.03;;
12925;SDS011;6529;50.566;9.774;2023-03-01T10:46:35;13.87;;;8.90;;
12925;SDS011;6529;50.566;9.774;2023-03-01T10:49:21;13.10;;;9.13;;
12925;SDS011;6529;50.566;9.774;2023-03-01T10:51:49;11.20;;;8.27;;
12925;SDS011;6529;50.566;9.774;2023-03-01T10:54:21;13.03;;;9.07;;
12925;SDS011;6529;50.566;9.774;2023-03-01T10:56:55;10.60;;;8.10;;
12925;SDS011;6529;50.566;9.774;2023-03-01T11:04:34;12.40;;;8.83;;
12925;SDS011;6529;50.566;9.774;2023-03-01T11:07:00;12.10;;;9.17;;
12925;SDS011;6529;50.566;9.774;2023-03-01T11:09:30;13.90;;;9.00;;
12925;SDS011;6529;50.566;9.774;2023-03-01T11:12:03;15.07;;;9.07;;
12925;SDS011;6529;50.566;9.774;2023-03-01T11:14:35;13.27;;;9.13;;
12925;SDS011;6529;50.566;9.774;2023-03-01T11:19:38;12.80;;;8.83;;
12925;SDS011;6529;50.566;9.774;2023-03-01T11:22:10;12.10;;;9.17;;
12925;SDS011;6529;50.566;9.774;2023-03-01T11:24:45;10.80;;;8.27;;
12925;SDS011;6529;50.566;9.774;2023-03-01T11:27:28;12.80;;;8.60;;
12925;SDS011;6529;50.566;9.774;2023-03-01T11:30:05;12.43;;;8.73;;
12925;SDS011;6529;50.566;9.774;2023-03-01T11:33:10;12.67;;;8.50;;
12925;SDS011;6529;50.566;9.774;2023-03-01T11:35:42;11.73;;;8.33;;
12925;SDS011;6529;50.566;9.774;2023-03-01T11:38:22;12.73;;;8.50;;
12925;SDS011;6529;50.566;9.774;2023-03-01T11:40:52;13.53;;;9.40;;
12925;SDS011;6529;50.566;9.774;2023-03-01T11:54:26;11.47;;;8.20;;
12925;SDS011;6529;50.566;9.774;2023-03-01T12:36:11;13.87;;;8.73;;
12925;SDS011;6529;50.566;9.774;2023-03-01T12:41:33;12.10;;;8.83;;
12925;SDS011;6529;50.566;9.774;2023-03-01T12:44:24;12.20;;;9.00;;
12925;SDS011;6529;50.566;9.774;2023-03-01T12:49:39;10.57;;;8.13;;
12925;SDS011;6529;50.566;9.774;2023-03-01T12:52:14;12.80;;;8.73;;
12925;SDS011;6529;50.566;9.774;2023-03-01T12:54:47;11.27;;;8.33;;
12925;SDS011;6529;50.566;9.774;2023-03-01T13:02:51;12.33;;;9.00;;
12925;SDS011;6529;50.566;9.774;2023-03-01T13:07:59;11.63;;;8.53;;
12925;SDS011;6529;50.566;9.774;2023-03-01T13:10:40;11.57;;;8.53;;
12925;SDS011;6529;50.566;9.774;2023-03-01T13:13:12;13.10;;;9.07;;
12925;SDS011;6529;50.566;9.774;2023-03-01T13:15:51;13.03;;;8.73;;
12925;SDS011;6529;50.566;9.774;2023-03-01T13:20:49;11.53;;;8.53;;
12925;SDS011;6529;50.566;9.774;2023-03-01T13:31:06;11.40;;;8.57;;
12925;SDS011;6529;50.566;9.774;2023-03-01T13:33:37;12.03;;;9.67;;
12925;SDS011;6529;50.566;9.774;2023-03-01T13:36:07;12.47;;;9.03;;
12925;SDS011;6529;50.566;9.774;2023-03-01T13:38:37;13.97;;;8.80;;
12925;SDS011;6529;50.566;9.774;2023-03-01T13:46:51;13.77;;;10.10;;
12925;SDS011;6529;50.566;9.774;2023-03-01T13:49:42;12.37;;;9.27;;
12925;SDS011;6529;50.566;9.774;2023-03-01T13:57:42;14.73;;;9.93;;
12925;SDS011;6529;50.566;9.774;2023-03-01T14:05:39;13.17;;;9.03;;
12925;SDS011;6529;50.566;9.774;2023-03-01T14:08:17;17.53;;;10.13;;
12925;SDS011;6529;50.566;9.774;2023-03-01T14:10:53;13.50;;;9.63;;
12925;SDS011;6529;50.566;9.774;2023-03-01T14:13:31;13.23;;;8.90;;
12925;SDS011;6529;50.566;9.774;2023-03-01T14:19:26;12.70;;;9.17;;
12925;SDS011;6529;50.566;9.774;2023-03-01T14:22:25;12.30;;;8.53;;
12925;SDS011;6529;50.566;9.774;2023-03-01T14:24:57;11.90;;;8.73;;
12925;SDS011;6529;50.566;9.774;2023-03-01T14:27:33;14.10;;;9.30;;
12925;SDS011;6529;50.566;9.774;2023-03-01T14:32:37;10.43;;;8.47;;
12925;SDS011;6529;50.566;9.774;2023-03-01T14:35:18;12.93;;;9.00;;
12925;SDS011;6529;50.566;9.774;2023-03-01T14:37:45;12.23;;;8.67;;
12925;SDS011;6529;50.566;9.774;2023-03-01T14:40:19;13.80;;;9.03;;
12925;SDS011;6529;50.566;9.774;2023-03-01T14:42:55;13.53;;;9.07;;
12925;SDS011;6529;50.566;9.774;2023-03-01T14:45:23;13.33;;;9.03;;
12925;SDS011;6529;50.566;9.774;2023-03-01T14:47:51;11.97;;;8.17;;
12925;SDS011;6529;50.566;9.774;2023-03-01T14:52:49;13.03;;;9.10;;
12925;SDS011;6529;50.566;9.774;2023-03-01T14:55:20;11.23;;;8.87;;
12925;SDS011;6529;50.566;9.774;2023-03-01T14:57:51;12.80;;;8.67;;
12925;SDS011;6529;50.566;9.774;2023-03-01T15:00:27;12.83;;;9.20;;
12925;SDS011;6529;50.566;9.774;2023-03-01T15:02:56;12.03;;;8.37;;
12925;SDS011;6529;50.566;9.774;2023-03-01T15:05:27;14.67;;;9.17;;
12925;SDS011;6529;50.566;9.774;2023-03-01T15:07:57;11.67;;;8.80;;
12925;SDS011;6529;50.566;9.774;2023-03-01T15:10:30;12.17;;;8.43;;
12925;SDS011;6529;50.566;9.774;2023-03-01T15:13:19;13.23;;;8.97;;
12925;SDS011;6529;50.566;9.774;2023-03-01T15:15:48;12.40;;;8.43;;
12925;SDS011;6529;50.566;9.774;2023-03-01T15:18:19;11.57;;;7.97;;
12925;SDS011;6529;50.566;9.774;2023-03-01T15:20:47;12.67;;;9.00;;
12925;SDS011;6529;50.566;9.774;2023-03-01T15:23:22;12.03;;;8.67;;
12925;SDS011;6529;50.566;9.774;2023-03-01T15:25:50;12.27;;;8.20;;
12925;SDS011;6529;50.566;9.774;2023-03-01T15:28:21;12.67;;;8.87;;
12925;SDS011;6529;50.566;9.774;2023-03-01T15:31:07;12.47;;;8.83;;
12925;SDS011;6529;50.566;9.774;2023-03-01T15:33:49;13.20;;;8.43;;
12925;SDS011;6529;50.566;9.774;2023-03-01T15:41:55;10.80;;;7.93;;
12925;SDS011;6529;50.566;9.774;2023-03-01T15:46:49;12.30;;;8.50;;
12925;SDS011;6529;50.566;9.774;2023-03-01T15:49:23;12.93;;;8.43;;
12925;SDS011;6529;50.566;9.774;2023-03-01T15:51:56;11.27;;;8.07;;
12925;SDS011;6529;50.566;9.774;2023-03-01T15:54:23;11.57;;;7.83;;
12925;SDS011;6529;50.566;9.774;2023-03-01T15:56:50;11.40;;;7.47;;
12925;SDS011;6529;50.566;9.774;2023-03-01T15:59:16;12.33;;;8.00;;
12925;SDS011;6529;50.566;9.774;2023-03-01T16:01:43;10.87;;;7.90;;
12925;SDS011;6529;50.566;9.774;2023-03-01T16:04:13;11.73;;;7.80;;
12925;SDS011;6529;50.566;9.774;2023-03-01T16:06:45;12.63;;;8.40;;
12925;SDS011;6529;50.566;9.774;2023-03-01T16:09:12;11.73;;;7.80;;
12925;SDS011;6529;50.566;9.774;2023-03-01T16:11:37;11.83;;;8.03;;
12925;SDS011;6529;50.566;9.774;2023-03-01T16:14:04;13.97;;;8.13;;
12925;SDS011;6529;50.566;9.774;2023-03-01T16:16:30;12.10;;;8.07;;
12925;SDS011;6529;50.566;9.774;2023-03-01T16:18:56;10.60;;;8.00;;
12925;SDS011;6529;50.566;9.774;2023-03-01T16:21:22;11.23;;;7.60;;
12925;SDS011;6529;50.566;9.774;2023-03-01T16:23:49;13.57;;;8.40;;
12925;SDS011;6529;50.566;9.774;2023-03-01T16:26:16;11.97;;;7.87;;
12925;SDS011;6529;50.566;9.774;2023-03-01T16:28:43;12.10;;;8.23;;
12925;SDS011;6529;50.566;9.774;2023-03-01T16:31:09;11.40;;;7.97;;
12925;SDS011;6529;50.566;9.774;2023-03-01T16:33:36;11.37;;;7.70;;
12925;SDS011;6529;50.566;9.774;2023-03-01T16:36:09;12.80;;;8.10;;
12925;SDS011;6529;50.566;9.774;2023-03-01T16:38:37;11.63;;;8.10;;
12925;SDS011;6529;50.566;9.774;2023-03-01T16:41:03;13.00;;;8.33;;
12925;SDS011;6529;50.566;9.774;2023-03-01T16:43:29;12.47;;;8.07;;
12925;SDS011;6529;50.566;9.774;2023-03-01T16:45:56;11.93;;;8.60;;
12925;SDS011;6529;50.566;9.774;2023-03-01T16:48:21;14.57;;;8.57;;
12925;SDS011;6529;50.566;9.774;2023-03-01T16:50:57;13.83;;;8.70;;
12925;SDS011;6529;50.566;9.774;2023-03-01T16:53:25;13.13;;;8.50;;
12925;SDS011;6529;50.566;9.774;2023-03-01T16:55:54;14.03;;;8.47;;
12925;SDS011;6529;50.566;9.774;2023-03-01T16:58:21;12.30;;;7.97;;
12925;SDS011;6529;50.566;9.774;2023-03-01T17:00:49;12.23;;;7.90;;
12925;SDS011;6529;50.566;9.774;2023-03-01T17:03:18;12.67;;;8.70;;
12925;SDS011;6529;50.566;9.774;2023-03-01T17:05:45;13.43;;;8.43;;
12925;SDS011;6529;50.566;9.774;2023-03-01T17:08:11;13.03;;;8.60;;
12925;SDS011;6529;50.566;9.774;2023-03-01T17:10:36;12.80;;;8.33;;
12925;SDS011;6529;50.566;9.774;2023-03-01T17:13:02;13.13;;;8.50;;
12925;SDS011;6529;50.566;9.774;2023-03-01T17:15:28;13.23;;;8.47;;